sensor_id;sensor_type;location;lat;lon;timestamp;temperature;humidity
47336;DHT22;33068;51.990;5.926;2022-12-13T00:02:08;-3.00;99.90
47336;DHT22;33068;51.990;5.926;2022-12-13T00:04:35;-3.10;99.90
47336;DHT22;33068;51.990;5.926;2022-12-13T00:07:02;-3.10;99.90
47336;DHT22;33068;51.990;5.926;2022-12-13T00:09:29;-3.10;99.90
47336;DHT22;33068;51.990;5.926;2022-12-13T00:11:57;-3.10;99.90
47336;DHT22;33068;51.990;5.926;2022-12-13T00:14:25;-3.10;99.90
47336;DHT22;33068;51.990;5.926;2022-12-13T00:16:52;-3.20;99.90
47336;DHT22;33068;51.990;5.926;2022-12-13T00:19:19;-3.30;99.90
47336;DHT22;33068;51.990;5.926;2022-12-13T00:21:46;-3.20;99.90
47336;DHT22;33068;51.990;5.926;2022-12-13T00:24:13;-3.30;99.90
47336;DHT22;33068;51.990;5.926;2022-12-13T00:26:41;-3.20;99.90
47336;DHT22;33068;51.990;5.926;2022-12-13T00:29:09;-3.30;99.90
47336;DHT22;33068;51.990;5.926;2022-12-13T00:31:38;-3.30;99.90
47336;DHT22;33068;51.990;5.926;2022-12-13T00:34:05;-3.30;99.90
47336;DHT22;33068;51.990;5.926;2022-12-13T00:36:32;-3.40;99.90
47336;DHT22;33068;51.990;5.926;2022-12-13T00:39:00;-3.40;99.90
47336;DHT22;33068;51.990;5.926;2022-12-13T00:41:29;-3.40;99.90
47336;DHT22;33068;51.990;5.926;2022-12-13T00:43:56;-3.40;99.90
47336;DHT22;33068;51.990;5.926;2022-12-13T00:46:24;-3.30;99.90
47336;DHT22;33068;51.990;5.926;2022-12-13T00:48:54;-3.40;99.90
47336;DHT22;33068;51.990;5.926;2022-12-13T00:51:22;-3.30;99.90
47336;DHT22;33068;51.990;5.926;2022-12-13T00:53:50;-3.40;99.90
47336;DHT22;33068;51.990;5.926;2022-12-13T00:56:19;-3.40;99.90
47336;DHT22;33068;51.990;5.926;2022-12-13T00:58:46;-3.40;99.90
47336;DHT22;33068;51.990;5.926;2022-12-13T01:01:16;-3.50;99.90
47336;DHT22;33068;51.990;5.926;2022-12-13T01:03:44;-3.50;99.90
47336;DHT22;33068;51.990;5.926;2022-12-13T01:06:13;-3.50;99.90
47336;DHT22;33068;51.990;5.926;2022-12-13T01:08:41;-3.50;99.90
47336;DHT22;33068;51.990;5.926;2022-12-13T01:11:09;-3.40;99.90
47336;DHT22;33068;51.990;5.926;2022-12-13T01:13:37;-3.60;99.90
47336;DHT22;33068;51.990;5.926;2022-12-13T01:16:06;-3.60;99.90
47336;DHT22;33068;51.990;5.926;2022-12-13T01:18:33;-3.70;99.90
47336;DHT22;33068;51.990;5.926;2022-12-13T01:21:02;-3.70;99.90
47336;DHT22;33068;51.990;5.926;2022-12-13T01:23:31;-3.70;99.90
47336;DHT22;33068;51.990;5.926;2022-12-13T01:26:01;-3.80;99.90
47336;DHT22;33068;51.990;5.926;2022-12-13T01:28:28;-3.80;99.90
47336;DHT22;33068;51.990;5.926;2022-12-13T01:30:56;-3.80;99.90
47336;DHT22;33068;51.990;5.926;2022-12-13T01:33:24;-3.80;99.90
47336;DHT22;33068;51.990;5.926;2022-12-13T01:35:51;-3.80;99.90
47336;DHT22;33068;51.990;5.926;2022-12-13T01:38:19;-3.80;99.90
47336;DHT22;33068;51.990;5.926;2022-12-13T01:40:49;-3.90;99.90
47336;DHT22;33068;51.990;5.926;2022-12-13T01:43:24;-3.80;99.90
47336;DHT22;33068;51.990;5.926;2022-12-13T01:45:51;-3.90;99.90
47336;DHT22;33068;51.990;5.926;2022-12-13T01:48:21;-4.00;99.90
47336;DHT22;33068;51.990;5.926;2022-12-13T01:50:52;-4.00;99.90
47336;DHT22;33068;51.990;5.926;2022-12-13T01:53:23;-4.00;99.90
47336;DHT22;33068;51.990;5.926;2022-12-13T01:55:59;-4.00;99.90
47336;DHT22;33068;51.990;5.926;2022-12-13T01:58:29;-4.00;99.90
47336;DHT22;33068;51.990;5.926;2022-12-13T02:00:57;-4.00;99.90
47336;DHT22;33068;51.990;5.926;2022-12-13T02:03:26;-4.00;99.90
47336;DHT22;33068;51.990;5.926;2022-12-13T02:05:58;-4.00;99.90
47336;DHT22;33068;51.990;5.926;2022-12-13T02:08:27;-4.00;99.90
47336;DHT22;33068;51.990;5.926;2022-12-13T02:10:56;-4.10;99.90
47336;DHT22;33068;51.990;5.926;2022-12-13T02:13:24;-4.40;99.90
47336;DHT22;33068;51.990;5.926;2022-12-13T02:15:59;-4.10;99.90
47336;DHT22;33068;51.990;5.926;2022-12-13T02:18:43;-4.20;99.90
47336;DHT22;33068;51.990;5.926;2022-12-13T02:21:20;-4.20;99.90
47336;DHT22;33068;51.990;5.926;2022-12-13T02:24:16;-4.30;99.90
47336;DHT22;33068;51.990;5.926;2022-12-13T02:27:19;-4.20;99.90
47336;DHT22;33068;51.990;5.926;2022-12-13T02:32:52;-4.20;99.90
47336;DHT22;33068;51.990;5.926;2022-12-13T02:35:25;-4.20;99.90
47336;DHT22;33068;51.990;5.926;2022-12-13T02:38:00;-4.10;99.90
47336;DHT22;33068;51.990;5.926;2022-12-13T02:40:31;-4.10;99.90
47336;DHT22;33068;51.990;5.926;2022-12-13T02:43:07;-4.10;99.90
47336;DHT22;33068;51.990;5.926;2022-12-13T02:45:42;-4.00;99.90
47336;DHT22;33068;51.990;5.926;2022-12-13T02:48:22;-4.20;99.90
47336;DHT22;33068;51.990;5.926;2022-12-13T02:50:50;-4.10;99.90
47336;DHT22;33068;51.990;5.926;2022-12-13T02:53:19;-4.20;99.90
47336;DHT22;33068;51.990;5.926;2022-12-13T02:55:48;-4.10;99.90
47336;DHT22;33068;51.990;5.926;2022-12-13T02:58:19;-4.10;99.90
47336;DHT22;33068;51.990;5.926;2022-12-13T03:00:54;-4.10;99.90
47336;DHT22;33068;51.990;5.926;2022-12-13T03:03:32;-4.10;99.90
47336;DHT22;33068;51.990;5.926;2022-12-13T03:06:15;-4.20;99.90
47336;DHT22;33068;51.990;5.926;2022-12-13T03:09:02;-4.20;99.90
47336;DHT22;33068;51.990;5.926;2022-12-13T03:11:47;-4.10;99.90
47336;DHT22;33068;51.990;5.926;2022-12-13T03:14:37;-4.00;99.90
47336;DHT22;33068;51.990;5.926;2022-12-13T03:17:07;-4.00;99.90
47336;DHT22;33068;51.990;5.926;2022-12-13T03:19:37;-4.00;99.90
47336;DHT22;33068;51.990;5.926;2022-12-13T03:22:05;-4.00;99.90
47336;DHT22;33068;51.990;5.926;2022-12-13T03:24:32;-4.00;99.90
47336;DHT22;33068;51.990;5.926;2022-12-13T03:27:01;-4.10;99.90
47336;DHT22;33068;51.990;5.926;2022-12-13T03:29:31;-4.10;99.90
47336;DHT22;33068;51.990;5.926;2022-12-13T03:31:58;-4.10;99.90
47336;DHT22;33068;51.990;5.926;2022-12-13T03:34:25;-4.10;99.90
47336;DHT22;33068;51.990;5.926;2022-12-13T03:36:55;-4.10;99.90
47336;DHT22;33068;51.990;5.926;2022-12-13T03:39:23;-4.10;99.90
47336;DHT22;33068;51.990;5.926;2022-12-13T03:41:50;-4.10;99.90
47336;DHT22;33068;51.990;5.926;2022-12-13T03:44:24;-4.10;99.90
47336;DHT22;33068;51.990;5.926;2022-12-13T03:46:51;-4.20;99.90
47336;DHT22;33068;51.990;5.926;2022-12-13T03:49:19;-4.30;99.90
47336;DHT22;33068;51.990;5.926;2022-12-13T03:51:47;-4.10;99.90
47336;DHT22;33068;51.990;5.926;2022-12-13T03:54:16;-3.80;99.90
47336;DHT22;33068;51.990;5.926;2022-12-13T03:56:45;-4.10;99.90
47336;DHT22;33068;51.990;5.926;2022-12-13T03:59:13;-4.10;99.90
47336;DHT22;33068;51.990;5.926;2022-12-13T04:01:40;-4.20;99.90
47336;DHT22;33068;51.990;5.926;2022-12-13T04:04:07;-4.20;99.90
47336;DHT22;33068;51.990;5.926;2022-12-13T04:06:35;-4.20;99.90
47336;DHT22;33068;51.990;5.926;2022-12-13T04:09:02;-4.10;99.90
47336;DHT22;33068;51.990;5.926;2022-12-13T04:11:33;-4.40;99.90
47336;DHT22;33068;51.990;5.926;2022-12-13T04:14:18;-4.30;99.90
47336;DHT22;33068;51.990;5.926;2022-12-13T04:16:45;-4.40;99.90
47336;DHT22;33068;51.990;5.926;2022-12-13T04:19:13;-4.40;99.90
47336;DHT22;33068;51.990;5.926;2022-12-13T04:21:40;-4.40;99.90
47336;DHT22;33068;51.990;5.926;2022-12-13T04:24:07;-4.20;99.90
47336;DHT22;33068;51.990;5.926;2022-12-13T04:26:35;-4.50;99.90
47336;DHT22;33068;51.990;5.926;2022-12-13T04:29:02;-4.10;99.90
47336;DHT22;33068;51.990;5.926;2022-12-13T04:31:30;-4.30;99.90
47336;DHT22;33068;51.990;5.926;2022-12-13T04:33:58;-4.20;99.90
47336;DHT22;33068;51.990;5.926;2022-12-13T04:36:26;-4.10;99.90
47336;DHT22;33068;51.990;5.926;2022-12-13T04:38:53;-4.20;99.90
47336;DHT22;33068;51.990;5.926;2022-12-13T04:41:20;-4.30;99.90
47336;DHT22;33068;51.990;5.926;2022-12-13T04:43:52;-4.30;99.90
47336;DHT22;33068;51.990;5.926;2022-12-13T04:46:19;-4.40;99.90
47336;DHT22;33068;51.990;5.926;2022-12-13T04:48:47;-4.40;99.90
47336;DHT22;33068;51.990;5.926;2022-12-13T04:51:15;-4.40;99.90
47336;DHT22;33068;51.990;5.926;2022-12-13T04:53:42;-4.30;99.90
47336;DHT22;33068;51.990;5.926;2022-12-13T04:56:10;-4.20;99.90
47336;DHT22;33068;51.990;5.926;2022-12-13T04:58:37;-4.10;99.90
47336;DHT22;33068;51.990;5.926;2022-12-13T05:01:07;-4.30;99.90
47336;DHT22;33068;51.990;5.926;2022-12-13T05:03:36;-4.30;99.90
47336;DHT22;33068;51.990;5.926;2022-12-13T05:06:04;-4.20;99.90
47336;DHT22;33068;51.990;5.926;2022-12-13T05:08:32;-4.20;99.90
47336;DHT22;33068;51.990;5.926;2022-12-13T05:10:59;-4.10;99.90
47336;DHT22;33068;51.990;5.926;2022-12-13T05:13:26;-4.20;99.90
47336;DHT22;33068;51.990;5.926;2022-12-13T05:15:54;-4.20;99.90
47336;DHT22;33068;51.990;5.926;2022-12-13T05:18:23;-4.20;99.90
47336;DHT22;33068;51.990;5.926;2022-12-13T05:20:51;-4.20;99.90
47336;DHT22;33068;51.990;5.926;2022-12-13T05:23:19;-4.10;99.90
47336;DHT22;33068;51.990;5.926;2022-12-13T05:25:47;-4.30;99.90
47336;DHT22;33068;51.990;5.926;2022-12-13T05:28:14;-4.30;99.90
47336;DHT22;33068;51.990;5.926;2022-12-13T05:30:41;-4.30;99.90
47336;DHT22;33068;51.990;5.926;2022-12-13T05:33:09;-4.30;99.90
47336;DHT22;33068;51.990;5.926;2022-12-13T05:35:38;-4.40;99.90
47336;DHT22;33068;51.990;5.926;2022-12-13T05:38:05;-4.40;99.90
47336;DHT22;33068;51.990;5.926;2022-12-13T05:40:33;-4.30;99.90
47336;DHT22;33068;51.990;5.926;2022-12-13T05:43:00;-4.30;99.90
47336;DHT22;33068;51.990;5.926;2022-12-13T05:45:28;-4.10;99.90
47336;DHT22;33068;51.990;5.926;2022-12-13T05:47:55;-4.40;99.90
47336;DHT22;33068;51.990;5.926;2022-12-13T05:50:22;-4.30;99.90
47336;DHT22;33068;51.990;5.926;2022-12-13T05:52:54;-4.40;99.90
47336;DHT22;33068;51.990;5.926;2022-12-13T05:55:22;-4.40;99.90
47336;DHT22;33068;51.990;5.926;2022-12-13T05:57:49;-4.40;99.90
47336;DHT22;33068;51.990;5.926;2022-12-13T06:00:17;-4.40;99.90
47336;DHT22;33068;51.990;5.926;2022-12-13T06:02:45;-4.50;99.90
47336;DHT22;33068;51.990;5.926;2022-12-13T06:05:12;-4.40;99.90
47336;DHT22;33068;51.990;5.926;2022-12-13T06:07:40;-4.50;99.90
47336;DHT22;33068;51.990;5.926;2022-12-13T06:10:09;-4.20;99.90
47336;DHT22;33068;51.990;5.926;2022-12-13T06:12:38;-4.60;99.90
47336;DHT22;33068;51.990;5.926;2022-12-13T06:15:14;-4.40;99.90
47336;DHT22;33068;51.990;5.926;2022-12-13T06:17:42;-4.40;99.90
47336;DHT22;33068;51.990;5.926;2022-12-13T06:20:11;-4.40;99.90
47336;DHT22;33068;51.990;5.926;2022-12-13T06:22:38;-4.60;99.90
47336;DHT22;33068;51.990;5.926;2022-12-13T06:25:07;-4.60;99.90
47336;DHT22;33068;51.990;5.926;2022-12-13T06:27:35;-4.60;99.90
47336;DHT22;33068;51.990;5.926;2022-12-13T06:30:03;-4.70;99.90
47336;DHT22;33068;51.990;5.926;2022-12-13T06:32:30;-4.60;99.90
47336;DHT22;33068;51.990;5.926;2022-12-13T06:34:57;-4.70;99.90
47336;DHT22;33068;51.990;5.926;2022-12-13T06:37:26;-4.60;99.90
47336;DHT22;33068;51.990;5.926;2022-12-13T06:39:53;-4.40;99.90
47336;DHT22;33068;51.990;5.926;2022-12-13T06:42:20;-4.60;99.90
47336;DHT22;33068;51.990;5.926;2022-12-13T06:44:49;-4.70;99.90
47336;DHT22;33068;51.990;5.926;2022-12-13T06:47:17;-4.80;99.90
47336;DHT22;33068;51.990;5.926;2022-12-13T06:49:44;-4.80;99.90
47336;DHT22;33068;51.990;5.926;2022-12-13T06:52:13;-4.70;99.90
47336;DHT22;33068;51.990;5.926;2022-12-13T06:54:41;-4.70;99.90
47336;DHT22;33068;51.990;5.926;2022-12-13T06:57:08;-4.80;99.90
47336;DHT22;33068;51.990;5.926;2022-12-13T06:59:36;-4.70;99.90
47336;DHT22;33068;51.990;5.926;2022-12-13T07:02:05;-4.70;99.90
47336;DHT22;33068;51.990;5.926;2022-12-13T07:04:33;-4.70;99.90
47336;DHT22;33068;51.990;5.926;2022-12-13T07:07:00;-4.70;99.90
47336;DHT22;33068;51.990;5.926;2022-12-13T07:09:29;-4.70;99.90
47336;DHT22;33068;51.990;5.926;2022-12-13T07:11:57;-4.70;99.90
47336;DHT22;33068;51.990;5.926;2022-12-13T07:14:25;-4.70;99.90
47336;DHT22;33068;51.990;5.926;2022-12-13T07:16:52;-4.80;99.90
47336;DHT22;33068;51.990;5.926;2022-12-13T07:19:21;-4.70;99.90
47336;DHT22;33068;51.990;5.926;2022-12-13T07:21:48;-4.50;99.90
47336;DHT22;33068;51.990;5.926;2022-12-13T07:24:18;-4.70;99.90
47336;DHT22;33068;51.990;5.926;2022-12-13T07:26:45;-4.40;99.90
47336;DHT22;33068;51.990;5.926;2022-12-13T07:29:13;-4.50;99.90
47336;DHT22;33068;51.990;5.926;2022-12-13T07:31:40;-4.60;99.90
47336;DHT22;33068;51.990;5.926;2022-12-13T07:34:07;-4.70;99.90
47336;DHT22;33068;51.990;5.926;2022-12-13T07:36:36;-4.70;99.90
47336;DHT22;33068;51.990;5.926;2022-12-13T07:39:03;-4.70;99.90
47336;DHT22;33068;51.990;5.926;2022-12-13T07:41:30;-4.70;99.90
47336;DHT22;33068;51.990;5.926;2022-12-13T07:44:00;-4.70;99.90
47336;DHT22;33068;51.990;5.926;2022-12-13T07:46:27;-4.70;99.90
47336;DHT22;33068;51.990;5.926;2022-12-13T07:48:55;-4.60;99.90
47336;DHT22;33068;51.990;5.926;2022-12-13T07:51:22;-4.60;99.90
47336;DHT22;33068;51.990;5.926;2022-12-13T07:53:52;-4.70;99.90
47336;DHT22;33068;51.990;5.926;2022-12-13T07:56:19;-4.80;99.90
47336;DHT22;33068;51.990;5.926;2022-12-13T07:58:46;-4.40;99.90
47336;DHT22;33068;51.990;5.926;2022-12-13T08:01:13;-4.70;99.90
47336;DHT22;33068;51.990;5.926;2022-12-13T08:03:40;-4.50;99.90
47336;DHT22;33068;51.990;5.926;2022-12-13T08:06:16;-4.70;99.90
47336;DHT22;33068;51.990;5.926;2022-12-13T08:08:44;-4.60;99.90
47336;DHT22;33068;51.990;5.926;2022-12-13T08:11:21;-4.60;99.90
47336;DHT22;33068;51.990;5.926;2022-12-13T08:13:59;-4.60;99.90
47336;DHT22;33068;51.990;5.926;2022-12-13T08:16:28;-4.60;99.90
47336;DHT22;33068;51.990;5.926;2022-12-13T08:18:55;-4.60;99.90
47336;DHT22;33068;51.990;5.926;2022-12-13T08:21:23;-4.50;99.90
47336;DHT22;33068;51.990;5.926;2022-12-13T08:23:50;-4.50;99.90
47336;DHT22;33068;51.990;5.926;2022-12-13T08:26:19;-4.50;99.90
47336;DHT22;33068;51.990;5.926;2022-12-13T08:28:46;-4.40;99.90
47336;DHT22;33068;51.990;5.926;2022-12-13T08:31:16;-4.40;99.90
47336;DHT22;33068;51.990;5.926;2022-12-13T08:33:48;-4.40;99.90
47336;DHT22;33068;51.990;5.926;2022-12-13T08:36:16;-4.40;99.90
47336;DHT22;33068;51.990;5.926;2022-12-13T08:38:49;-4.30;99.90
47336;DHT22;33068;51.990;5.926;2022-12-13T08:41:19;-4.30;99.90
47336;DHT22;33068;51.990;5.926;2022-12-13T08:43:46;-4.60;99.90
47336;DHT22;33068;51.990;5.926;2022-12-13T08:46:14;-4.20;99.90
47336;DHT22;33068;51.990;5.926;2022-12-13T08:48:41;-4.10;99.90
47336;DHT22;33068;51.990;5.926;2022-12-13T08:51:10;-4.20;99.90
47336;DHT22;33068;51.990;5.926;2022-12-13T08:53:38;-4.20;99.90
47336;DHT22;33068;51.990;5.926;2022-12-13T08:56:10;-4.20;99.90
47336;DHT22;33068;51.990;5.926;2022-12-13T08:58:39;-4.10;99.90
47336;DHT22;33068;51.990;5.926;2022-12-13T09:01:06;-3.80;99.90
47336;DHT22;33068;51.990;5.926;2022-12-13T09:03:35;-4.00;99.90
47336;DHT22;33068;51.990;5.926;2022-12-13T09:06:06;-4.00;99.90
47336;DHT22;33068;51.990;5.926;2022-12-13T09:08:35;-3.90;99.90
47336;DHT22;33068;51.990;5.926;2022-12-13T09:11:03;-3.90;99.90
47336;DHT22;33068;51.990;5.926;2022-12-13T09:13:32;-3.80;99.90
47336;DHT22;33068;51.990;5.926;2022-12-13T09:16:06;-3.70;99.90
47336;DHT22;33068;51.990;5.926;2022-12-13T09:18:34;-3.60;99.90
47336;DHT22;33068;51.990;5.926;2022-12-13T09:21:05;-3.30;99.90
47336;DHT22;33068;51.990;5.926;2022-12-13T09:23:33;-3.30;99.90
47336;DHT22;33068;51.990;5.926;2022-12-13T09:26:00;-3.10;99.90
47336;DHT22;33068;51.990;5.926;2022-12-13T09:28:28;-3.00;99.90
47336;DHT22;33068;51.990;5.926;2022-12-13T09:30:56;-3.00;99.90
47336;DHT22;33068;51.990;5.926;2022-12-13T09:33:25;-2.90;99.90
47336;DHT22;33068;51.990;5.926;2022-12-13T09:35:52;-2.80;99.90
47336;DHT22;33068;51.990;5.926;2022-12-13T09:38:19;-2.50;99.90
47336;DHT22;33068;51.990;5.926;2022-12-13T09:40:49;-2.70;99.90
47336;DHT22;33068;51.990;5.926;2022-12-13T09:43:22;-2.60;99.90
47336;DHT22;33068;51.990;5.926;2022-12-13T09:45:51;-2.50;99.90
47336;DHT22;33068;51.990;5.926;2022-12-13T09:48:20;-2.50;99.90
47336;DHT22;33068;51.990;5.926;2022-12-13T09:50:49;-2.40;99.90
47336;DHT22;33068;51.990;5.926;2022-12-13T09:53:18;-2.30;99.90
47336;DHT22;33068;51.990;5.926;2022-12-13T09:55:48;-2.30;99.90
47336;DHT22;33068;51.990;5.926;2022-12-13T09:58:19;-2.30;99.90
47336;DHT22;33068;51.990;5.926;2022-12-13T10:00:48;-2.00;99.90
47336;DHT22;33068;51.990;5.926;2022-12-13T10:03:19;-2.00;99.90
47336;DHT22;33068;51.990;5.926;2022-12-13T10:06:07;-1.90;99.90
47336;DHT22;33068;51.990;5.926;2022-12-13T10:08:42;-1.80;99.90
47336;DHT22;33068;51.990;5.926;2022-12-13T10:11:12;-1.80;99.90
47336;DHT22;33068;51.990;5.926;2022-12-13T10:13:41;-1.80;99.90
47336;DHT22;33068;51.990;5.926;2022-12-13T10:16:16;-1.70;99.90
47336;DHT22;33068;51.990;5.926;2022-12-13T10:18:44;-1.80;99.90
47336;DHT22;33068;51.990;5.926;2022-12-13T10:21:18;-1.70;99.90
47336;DHT22;33068;51.990;5.926;2022-12-13T10:23:46;-1.50;99.90
47336;DHT22;33068;51.990;5.926;2022-12-13T10:26:13;-1.60;99.90
47336;DHT22;33068;51.990;5.926;2022-12-13T10:28:41;-1.60;99.90
47336;DHT22;33068;51.990;5.926;2022-12-13T10:31:15;-1.70;99.90
47336;DHT22;33068;51.990;5.926;2022-12-13T10:33:53;-1.60;99.90
47336;DHT22;33068;51.990;5.926;2022-12-13T10:36:34;-1.70;99.90
47336;DHT22;33068;51.990;5.926;2022-12-13T10:39:03;-1.70;99.90
47336;DHT22;33068;51.990;5.926;2022-12-13T10:41:35;-1.70;99.90
47336;DHT22;33068;51.990;5.926;2022-12-13T10:44:08;-1.80;99.90
47336;DHT22;33068;51.990;5.926;2022-12-13T10:46:46;-1.80;99.90
47336;DHT22;33068;51.990;5.926;2022-12-13T10:49:16;-1.70;99.90
47336;DHT22;33068;51.990;5.926;2022-12-13T10:51:46;-1.60;99.90
47336;DHT22;33068;51.990;5.926;2022-12-13T10:54:22;-1.50;99.90
47336;DHT22;33068;51.990;5.926;2022-12-13T10:56:51;-1.50;99.90
47336;DHT22;33068;51.990;5.926;2022-12-13T10:59:27;-1.60;99.90
47336;DHT22;33068;51.990;5.926;2022-12-13T11:01:57;-1.50;99.90
47336;DHT22;33068;51.990;5.926;2022-12-13T11:04:27;-1.40;99.90
47336;DHT22;33068;51.990;5.926;2022-12-13T11:06:57;-1.40;99.90
47336;DHT22;33068;51.990;5.926;2022-12-13T11:09:28;-1.30;99.90
47336;DHT22;33068;51.990;5.926;2022-12-13T11:11:57;-1.30;99.90
47336;DHT22;33068;51.990;5.926;2022-12-13T11:14:28;-1.30;99.90
47336;DHT22;33068;51.990;5.926;2022-12-13T11:16:59;-1.30;99.90
47336;DHT22;33068;51.990;5.926;2022-12-13T11:19:35;-1.20;99.90
47336;DHT22;33068;51.990;5.926;2022-12-13T11:22:06;-1.20;99.90
47336;DHT22;33068;51.990;5.926;2022-12-13T11:24:36;-1.10;99.90
47336;DHT22;33068;51.990;5.926;2022-12-13T11:27:20;-1.00;99.90
47336;DHT22;33068;51.990;5.926;2022-12-13T11:30:08;-0.90;99.90
47336;DHT22;33068;51.990;5.926;2022-12-13T11:38:31;-1.00;99.90
47336;DHT22;33068;51.990;5.926;2022-12-13T11:41:04;-1.00;99.90
47336;DHT22;33068;51.990;5.926;2022-12-13T11:43:40;-1.10;99.90
47336;DHT22;33068;51.990;5.926;2022-12-13T11:46:14;-1.20;99.90
47336;DHT22;33068;51.990;5.926;2022-12-13T11:48:45;-1.20;99.90
47336;DHT22;33068;51.990;5.926;2022-12-13T11:51:16;-1.20;99.90
47336;DHT22;33068;51.990;5.926;2022-12-13T11:53:53;-1.10;99.90
47336;DHT22;33068;51.990;5.926;2022-12-13T11:56:24;-1.10;99.90
47336;DHT22;33068;51.990;5.926;2022-12-13T11:58:57;-1.10;99.90
47336;DHT22;33068;51.990;5.926;2022-12-13T12:01:32;-1.10;99.90
47336;DHT22;33068;51.990;5.926;2022-12-13T12:04:13;-1.10;99.90
47336;DHT22;33068;51.990;5.926;2022-12-13T12:06:47;-1.20;99.90
47336;DHT22;33068;51.990;5.926;2022-12-13T12:09:22;-1.10;99.90
47336;DHT22;33068;51.990;5.926;2022-12-13T12:11:56;-1.10;99.90
47336;DHT22;33068;51.990;5.926;2022-12-13T12:14:37;-1.00;99.90
47336;DHT22;33068;51.990;5.926;2022-12-13T12:17:07;-1.10;99.90
47336;DHT22;33068;51.990;5.926;2022-12-13T12:19:39;-1.10;99.90
47336;DHT22;33068;51.990;5.926;2022-12-13T12:22:14;-1.20;99.90
47336;DHT22;33068;51.990;5.926;2022-12-13T12:24:56;-1.00;99.90
47336;DHT22;33068;51.990;5.926;2022-12-13T12:27:33;-1.20;99.90
47336;DHT22;33068;51.990;5.926;2022-12-13T12:30:09;-1.10;99.90
47336;DHT22;33068;51.990;5.926;2022-12-13T12:32:43;-1.30;99.90
47336;DHT22;33068;51.990;5.926;2022-12-13T12:38:12;-1.30;99.90
47336;DHT22;33068;51.990;5.926;2022-12-13T12:40:54;-1.40;99.90
47336;DHT22;33068;51.990;5.926;2022-12-13T12:43:31;-1.40;99.90
47336;DHT22;33068;51.990;5.926;2022-12-13T12:46:09;-1.40;99.90
47336;DHT22;33068;51.990;5.926;2022-12-13T12:51:54;-1.40;99.90
47336;DHT22;33068;51.990;5.926;2022-12-13T12:54:35;-1.20;99.90
47336;DHT22;33068;51.990;5.926;2022-12-13T12:57:16;-1.40;99.90
47336;DHT22;33068;51.990;5.926;2022-12-13T12:59:54;-1.40;99.90
47336;DHT22;33068;51.990;5.926;2022-12-13T13:02:31;-1.30;99.90
47336;DHT22;33068;51.990;5.926;2022-12-13T13:05:17;-1.30;99.90
47336;DHT22;33068;51.990;5.926;2022-12-13T13:07:52;-1.70;99.90
47336;DHT22;33068;51.990;5.926;2022-12-13T13:10:22;-1.30;99.90
47336;DHT22;33068;51.990;5.926;2022-12-13T13:12:51;-1.20;99.90
47336;DHT22;33068;51.990;5.926;2022-12-13T13:15:53;-1.10;99.90
47336;DHT22;33068;51.990;5.926;2022-12-13T13:18:48;-1.10;99.90
47336;DHT22;33068;51.990;5.926;2022-12-13T13:21:30;-1.10;99.90
47336;DHT22;33068;51.990;5.926;2022-12-13T13:24:22;-1.20;99.90
47336;DHT22;33068;51.990;5.926;2022-12-13T13:26:51;-1.20;99.90
47336;DHT22;33068;51.990;5.926;2022-12-13T13:29:41;-1.20;99.90
47336;DHT22;33068;51.990;5.926;2022-12-13T13:32:27;-1.20;99.90
47336;DHT22;33068;51.990;5.926;2022-12-13T13:47:42;-1.40;99.90
47336;DHT22;33068;51.990;5.926;2022-12-13T14:00:01;-1.50;99.90
47336;DHT22;33068;51.990;5.926;2022-12-13T14:05:48;-1.50;99.90
47336;DHT22;33068;51.990;5.926;2022-12-13T14:08:33;-1.50;99.90
47336;DHT22;33068;51.990;5.926;2022-12-13T14:18:00;-1.50;99.90
47336;DHT22;33068;51.990;5.926;2022-12-13T14:20:48;-1.50;99.90
47336;DHT22;33068;51.990;5.926;2022-12-13T14:23:29;-1.50;99.90
47336;DHT22;33068;51.990;5.926;2022-12-13T14:26:23;-1.50;99.90
47336;DHT22;33068;51.990;5.926;2022-12-13T14:28:54;-1.50;99.90
47336;DHT22;33068;51.990;5.926;2022-12-13T14:31:25;-1.50;99.90
47336;DHT22;33068;51.990;5.926;2022-12-13T14:33:55;-1.50;99.90
47336;DHT22;33068;51.990;5.926;2022-12-13T14:36:30;-1.50;99.90
47336;DHT22;33068;51.990;5.926;2022-12-13T14:39:00;-1.60;99.90
47336;DHT22;33068;51.990;5.926;2022-12-13T14:41:28;-1.60;99.90
47336;DHT22;33068;51.990;5.926;2022-12-13T14:44:14;-1.50;99.90
47336;DHT22;33068;51.990;5.926;2022-12-13T14:46:50;-1.70;99.90
47336;DHT22;33068;51.990;5.926;2022-12-13T14:49:19;-1.70;99.90
47336;DHT22;33068;51.990;5.926;2022-12-13T14:51:52;-1.60;99.90
47336;DHT22;33068;51.990;5.926;2022-12-13T14:54:26;-1.80;99.90
47336;DHT22;33068;51.990;5.926;2022-12-13T14:56:57;-1.70;99.90
47336;DHT22;33068;51.990;5.926;2022-12-13T14:59:24;-1.80;99.90
47336;DHT22;33068;51.990;5.926;2022-12-13T15:01:57;-1.70;99.90
47336;DHT22;33068;51.990;5.926;2022-12-13T15:04:27;-1.90;99.90
47336;DHT22;33068;51.990;5.926;2022-12-13T15:07:00;-1.90;99.90
47336;DHT22;33068;51.990;5.926;2022-12-13T15:09:29;-1.90;99.90
47336;DHT22;33068;51.990;5.926;2022-12-13T15:11:57;-1.90;99.90
47336;DHT22;33068;51.990;5.926;2022-12-13T15:14:26;-2.10;99.90
47336;DHT22;33068;51.990;5.926;2022-12-13T15:16:55;-1.90;99.90
47336;DHT22;33068;51.990;5.926;2022-12-13T15:19:26;-1.90;99.90
47336;DHT22;33068;51.990;5.926;2022-12-13T15:21:59;-1.90;99.90
47336;DHT22;33068;51.990;5.926;2022-12-13T15:24:39;-2.00;99.90
47336;DHT22;33068;51.990;5.926;2022-12-13T15:27:13;-2.00;99.90
47336;DHT22;33068;51.990;5.926;2022-12-13T15:29:41;-2.10;99.90
47336;DHT22;33068;51.990;5.926;2022-12-13T15:32:14;-2.10;99.90
47336;DHT22;33068;51.990;5.926;2022-12-13T15:34:44;-2.10;99.90
47336;DHT22;33068;51.990;5.926;2022-12-13T15:37:22;-2.20;99.90
47336;DHT22;33068;51.990;5.926;2022-12-13T15:39:51;-2.20;99.90
47336;DHT22;33068;51.990;5.926;2022-12-13T15:42:29;-2.20;99.90
47336;DHT22;33068;51.990;5.926;2022-12-13T15:44:59;-2.10;99.90
47336;DHT22;33068;51.990;5.926;2022-12-13T15:47:27;-2.20;99.90
47336;DHT22;33068;51.990;5.926;2022-12-13T15:49:56;-2.10;99.90
47336;DHT22;33068;51.990;5.926;2022-12-13T15:52:29;-2.20;99.90
47336;DHT22;33068;51.990;5.926;2022-12-13T15:54:58;-2.20;99.90
47336;DHT22;33068;51.990;5.926;2022-12-13T15:57:28;-2.20;99.90
47336;DHT22;33068;51.990;5.926;2022-12-13T16:00:06;-2.00;99.90
47336;DHT22;33068;51.990;5.926;2022-12-13T16:02:48;-2.30;99.90
47336;DHT22;33068;51.990;5.926;2022-12-13T16:05:23;-2.30;99.90
47336;DHT22;33068;51.990;5.926;2022-12-13T16:07:53;-2.30;99.90
47336;DHT22;33068;51.990;5.926;2022-12-13T16:10:21;-2.30;99.90
47336;DHT22;33068;51.990;5.926;2022-12-13T16:12:52;-2.30;99.90
47336;DHT22;33068;51.990;5.926;2022-12-13T16:15:22;-2.30;99.90
47336;DHT22;33068;51.990;5.926;2022-12-13T16:17:49;-2.40;99.90
47336;DHT22;33068;51.990;5.926;2022-12-13T16:20:18;-2.40;99.90
47336;DHT22;33068;51.990;5.926;2022-12-13T16:22:46;-2.30;99.90
47336;DHT22;33068;51.990;5.926;2022-12-13T16:25:16;-2.40;99.90
47336;DHT22;33068;51.990;5.926;2022-12-13T16:27:44;-2.40;99.90
47336;DHT22;33068;51.990;5.926;2022-12-13T16:30:14;-2.40;99.90
47336;DHT22;33068;51.990;5.926;2022-12-13T16:32:50;-2.40;99.90
47336;DHT22;33068;51.990;5.926;2022-12-13T16:35:18;-2.40;99.90
47336;DHT22;33068;51.990;5.926;2022-12-13T16:37:46;-2.40;99.90
47336;DHT22;33068;51.990;5.926;2022-12-13T16:40:26;-2.50;99.90
47336;DHT22;33068;51.990;5.926;2022-12-13T16:43:03;-2.40;99.90